createdAt,value
2023-05-23T00:01:46.898Z,14.39
2023-05-23T00:04:18.916Z,14.40
2023-05-23T00:06:50.915Z,14.34
2023-05-23T00:09:23.420Z,14.28
2023-05-23T00:11:53.079Z,14.32
2023-05-23T00:14:23.801Z,14.32
2023-05-23T00:16:53.394Z,14.36
2023-05-23T00:19:23.129Z,14.35
2023-05-23T00:21:53.938Z,14.37
2023-05-23T00:24:26.048Z,14.40
2023-05-23T00:26:55.599Z,14.36
2023-05-23T00:29:25.101Z,14.26
2023-05-23T00:31:54.831Z,14.14
2023-05-23T00:34:24.348Z,14.12
2023-05-23T00:36:54.412Z,14.17
2023-05-23T00:39:26.626Z,14.12
2023-05-23T00:41:56.499Z,14.11
2023-05-23T00:44:26.097Z,14.12
2023-05-23T00:46:58.241Z,14.16
2023-05-23T00:49:28.389Z,14.17
2023-05-23T00:51:58.054Z,14.14
2023-05-23T00:54:32.095Z,14.14
2023-05-23T00:57:01.774Z,14.18
2023-05-23T00:59:31.524Z,14.13
2023-05-23T01:02:02.541Z,14.15
2023-05-23T01:04:34.506Z,14.21
2023-05-23T01:07:04.830Z,14.43
2023-05-23T01:09:37.063Z,14.66
2023-05-23T01:12:16.272Z,14.49
2023-05-23T01:14:49.408Z,14.40
2023-05-23T01:17:24.491Z,14.53
2023-05-23T01:20:13.235Z,14.53
2023-05-23T01:23:00.512Z,14.61
2023-05-23T01:25:42.835Z,14.39
2023-05-23T01:28:18.291Z,14.30
2023-05-23T01:30:49.106Z,14.23
2023-05-23T01:33:20.082Z,14.20
2023-05-23T01:35:49.650Z,14.18
2023-05-23T01:38:19.273Z,14.16
2023-05-23T01:40:48.805Z,14.16
2023-05-23T01:43:21.082Z,14.17
2023-05-23T01:45:51.164Z,14.18
2023-05-23T01:48:21.278Z,14.15
2023-05-23T01:50:50.924Z,14.15
2023-05-23T01:53:24.908Z,14.16
2023-05-23T01:55:55.687Z,14.15
2023-05-23T01:58:27.953Z,14.11
2023-05-23T02:00:57.585Z,14.17
2023-05-23T02:03:27.257Z,14.21
2023-05-23T02:05:56.868Z,14.23
2023-05-23T02:08:26.383Z,14.16
2023-05-23T02:10:55.972Z,14.20
2023-05-23T02:13:28.121Z,14.24
2023-05-23T02:15:57.680Z,14.22
2023-05-23T02:18:29.578Z,14.11
2023-05-23T02:20:59.263Z,14.00
2023-05-23T02:23:28.821Z,13.98
2023-05-23T02:25:58.383Z,13.93
2023-05-23T02:28:30.470Z,13.72
2023-05-23T02:31:00.246Z,13.69
2023-05-23T02:33:29.885Z,13.55
2023-05-23T02:35:59.403Z,13.47
2023-05-23T02:38:31.038Z,13.41
2023-05-23T02:41:00.984Z,13.32
2023-05-23T02:43:33.150Z,13.37
2023-05-23T02:46:02.795Z,13.16
2023-05-23T02:48:32.321Z,13.13
2023-05-23T02:51:02.012Z,13.12
2023-05-23T02:53:32.089Z,13.04
2023-05-23T02:56:01.807Z,13.03
2023-05-23T02:58:35.856Z,13.01
2023-05-23T03:01:07.595Z,12.91
2023-05-23T03:03:37.845Z,12.95
2023-05-23T03:06:07.840Z,12.99
2023-05-23T03:08:37.375Z,13.01
2023-05-23T03:11:06.933Z,12.96
2023-05-23T03:13:39.066Z,12.97
2023-05-23T03:16:09.092Z,12.94
2023-05-23T03:18:38.643Z,12.81
2023-05-23T03:21:08.245Z,12.88
2023-05-23T03:23:37.808Z,12.82
2023-05-23T03:26:07.370Z,12.88
2023-05-23T03:28:39.451Z,12.87
2023-05-23T03:31:09.091Z,12.78
2023-05-23T03:33:40.347Z,12.75
2023-05-23T03:36:10.391Z,12.80
2023-05-23T03:38:39.910Z,12.77
2023-05-23T03:41:09.765Z,12.78
2023-05-23T03:43:41.956Z,12.79
2023-05-23T03:46:11.731Z,12.79
2023-05-23T03:48:41.321Z,12.79
2023-05-23T03:51:11.293Z,12.68
2023-05-23T03:53:41.072Z,12.79
2023-05-23T03:56:10.635Z,12.81
2023-05-23T03:58:42.739Z,12.85
2023-05-23T04:01:12.311Z,12.81
2023-05-23T04:03:42.409Z,12.84
2023-05-23T04:06:13.669Z,12.79
2023-05-23T04:08:45.381Z,12.79
2023-05-23T04:11:14.916Z,12.77
2023-05-23T04:13:47.332Z,12.73
2023-05-23T04:16:17.262Z,12.76
2023-05-23T04:18:47.687Z,12.71
2023-05-23T04:21:17.270Z,12.72
2023-05-23T04:23:47.385Z,12.65
2023-05-23T04:26:16.974Z,12.63
2023-05-23T04:28:50.394Z,12.54
2023-05-23T04:31:19.930Z,12.47
2023-05-23T04:33:49.508Z,12.55
2023-05-23T04:36:19.288Z,12.49
2023-05-23T04:38:48.881Z,12.49
2023-05-23T04:41:23.800Z,12.47
2023-05-23T04:43:58.607Z,12.38
2023-05-23T04:46:28.499Z,12.45
2023-05-23T04:48:59.110Z,12.48
2023-05-23T04:51:28.664Z,12.40
2023-05-23T04:53:58.240Z,12.42
2023-05-23T04:56:29.183Z,12.41
2023-05-23T04:59:01.401Z,12.34
2023-05-23T05:01:31.579Z,12.33
2023-05-23T05:04:01.186Z,12.37
2023-05-23T05:06:31.186Z,12.35
2023-05-23T05:09:00.756Z,12.32
2023-05-23T05:11:30.338Z,12.37
2023-05-23T05:14:02.532Z,12.38
2023-05-23T05:16:32.190Z,12.38
2023-05-23T05:19:01.977Z,12.44
2023-05-23T05:21:31.637Z,12.35
2023-05-23T05:24:01.809Z,12.40
2023-05-23T05:26:31.406Z,12.40
2023-05-23T05:29:03.527Z,12.50
2023-05-23T05:31:33.100Z,12.61
2023-05-23T05:34:02.796Z,12.46
2023-05-23T05:36:32.710Z,12.53
2023-05-23T05:39:02.282Z,12.60
2023-05-23T05:41:31.902Z,12.58
2023-05-23T05:44:03.984Z,12.51
2023-05-23T05:46:33.536Z,12.38
2023-05-23T05:49:03.189Z,12.46
2023-05-23T05:51:32.803Z,12.44
2023-05-23T05:54:02.379Z,12.47
2023-05-23T05:56:32.433Z,12.53
2023-05-23T05:59:04.617Z,12.52
2023-05-23T06:01:34.953Z,12.56
2023-05-23T06:04:04.717Z,12.58
2023-05-23T06:06:34.826Z,12.60
2023-05-23T06:09:04.377Z,12.60
2023-05-23T06:11:34.593Z,12.54
2023-05-23T06:14:07.399Z,12.55
2023-05-23T06:16:37.500Z,12.58
2023-05-23T06:19:07.386Z,12.51
2023-05-23T06:21:36.989Z,12.54
2023-05-23T06:24:06.635Z,12.55
2023-05-23T06:26:37.808Z,12.53
2023-05-23T06:29:09.940Z,12.49
2023-05-23T06:31:39.694Z,12.50
2023-05-23T06:34:09.336Z,12.52
2023-05-23T06:36:38.900Z,12.51
2023-05-23T06:39:10.125Z,12.55
2023-05-23T06:41:39.726Z,12.54
2023-05-23T06:44:11.839Z,12.61
2023-05-23T06:46:41.344Z,12.65
2023-05-23T06:49:15.263Z,12.67
2023-05-23T06:51:45.111Z,12.67
2023-05-23T06:54:14.778Z,12.66
2023-05-23T06:56:44.427Z,12.65
2023-05-23T06:59:16.573Z,12.65
2023-05-23T07:01:46.183Z,12.59
2023-05-23T07:04:15.814Z,12.52
2023-05-23T07:06:45.386Z,12.50
2023-05-23T07:09:14.909Z,12.46
2023-05-23T07:11:44.513Z,12.41
2023-05-23T07:14:16.787Z,12.40
2023-05-23T07:16:46.422Z,12.34
2023-05-23T07:19:16.613Z,12.26
2023-05-23T07:21:46.192Z,12.21
2023-05-23T07:24:15.758Z,12.30
2023-05-23T07:26:45.259Z,12.33
2023-05-23T07:29:17.442Z,12.34
2023-05-23T07:31:46.973Z,12.35
2023-05-23T07:34:16.537Z,12.40
2023-05-23T07:36:46.127Z,12.31
2023-05-23T07:39:15.712Z,12.40
2023-05-23T07:41:45.339Z,12.41
2023-05-23T07:44:17.551Z,12.51
2023-05-23T07:46:47.146Z,12.72
2023-05-23T07:49:16.784Z,12.77
2023-05-23T07:51:46.380Z,12.83
2023-05-23T07:54:16.816Z,12.87
2023-05-23T07:56:46.553Z,12.89
2023-05-23T07:59:18.765Z,12.88
2023-05-23T08:01:50.701Z,12.93
2023-05-23T08:04:20.616Z,13.05
2023-05-23T08:07:04.418Z,13.15
2023-05-23T08:09:35.317Z,13.21
2023-05-23T08:12:04.879Z,13.02
2023-05-23T08:14:49.741Z,13.04
2023-05-23T08:17:20.787Z,13.00
2023-05-23T08:19:50.494Z,12.90
2023-05-23T08:22:20.047Z,12.93
2023-05-23T08:24:49.617Z,12.73
2023-05-23T08:27:19.177Z,12.85
2023-05-23T08:29:52.888Z,12.81
2023-05-23T08:32:22.601Z,12.90
2023-05-23T08:34:52.364Z,12.79
2023-05-23T08:37:21.976Z,12.75
2023-05-23T08:39:52.315Z,12.78
2023-05-23T08:42:21.957Z,12.45
2023-05-23T08:44:55.028Z,12.47
2023-05-23T08:47:24.618Z,12.45
2023-05-23T08:49:55.778Z,12.46
2023-05-23T08:52:28.205Z,12.42
2023-05-23T08:54:57.857Z,12.31
2023-05-23T08:57:28.952Z,12.35
2023-05-23T09:00:01.193Z,12.33
2023-05-23T09:02:30.909Z,12.33
2023-05-23T09:05:00.588Z,12.34
2023-05-23T09:07:31.907Z,12.23
2023-05-23T09:10:01.484Z,12.25
2023-05-23T09:12:31.063Z,12.00
2023-05-23T09:15:03.454Z,11.86
2023-05-23T09:17:34.312Z,11.76
2023-05-23T09:20:05.084Z,11.68
2023-05-23T09:22:34.651Z,11.73
2023-05-23T09:25:04.977Z,11.69
2023-05-23T09:27:34.582Z,11.73
2023-05-23T09:30:11.712Z,11.58
2023-05-23T09:32:42.535Z,11.41
2023-05-23T09:35:14.580Z,11.41
2023-05-23T09:37:47.092Z,11.36
2023-05-23T09:40:18.164Z,11.31
2023-05-23T09:42:49.579Z,11.35
2023-05-23T09:45:21.705Z,11.24
2023-05-23T09:47:54.775Z,11.18
2023-05-23T09:50:27.260Z,11.23
2023-05-23T09:52:56.778Z,11.21
2023-05-23T09:55:26.659Z,11.13
2023-05-23T09:57:57.838Z,11.15
2023-05-23T10:00:30.231Z,11.11
2023-05-23T10:03:11.083Z,11.04
2023-05-23T10:05:44.710Z,11.00
2023-05-23T10:08:18.012Z,11.10
2023-05-23T10:11:17.454Z,11.11
2023-05-23T10:13:48.577Z,11.00
2023-05-23T10:16:22.669Z,10.92
2023-05-23T10:18:57.879Z,10.81
2023-05-23T10:21:28.615Z,10.79
2023-05-23T10:23:58.279Z,10.79
2023-05-23T10:26:27.916Z,10.90
2023-05-23T10:28:58.549Z,10.98
2023-05-23T10:31:31.357Z,10.94
2023-05-23T10:34:06.128Z,10.94
2023-05-23T10:36:39.261Z,10.97
2023-05-23T10:39:13.451Z,10.91
2023-05-23T10:41:47.950Z,10.98
2023-05-23T10:44:21.462Z,11.03
2023-05-23T10:46:58.990Z,10.96
2023-05-23T10:49:40.867Z,11.02
2023-05-23T10:52:11.553Z,11.03
2023-05-23T10:54:45.813Z,11.11
2023-05-23T10:57:19.767Z,11.13
2023-05-23T10:59:49.758Z,11.15
2023-05-23T11:02:23.036Z,11.28
2023-05-23T11:05:21.639Z,11.38
2023-05-23T11:08:09.433Z,11.31
2023-05-23T11:10:57.333Z,11.46
2023-05-23T11:13:27.279Z,11.66
2023-05-23T11:15:56.935Z,11.82
2023-05-23T11:18:31.341Z,11.95
2023-05-23T11:21:01.677Z,11.96
2023-05-23T11:23:43.526Z,12.01
2023-05-23T11:26:33.991Z,12.09
2023-05-23T11:29:04.285Z,12.21
2023-05-23T11:31:33.943Z,12.34
2023-05-23T11:34:06.235Z,12.41
2023-05-23T11:36:36.144Z,12.59
2023-05-23T11:39:06.307Z,12.88
2023-05-23T11:41:38.177Z,13.05
2023-05-23T11:44:14.349Z,13.17
2023-05-23T11:46:43.985Z,13.04
2023-05-23T11:49:16.425Z,13.17
2023-05-23T11:51:46.070Z,13.45
2023-05-23T11:54:15.806Z,13.39
2023-05-23T11:56:45.380Z,13.18
2023-05-23T11:59:14.948Z,12.92
2023-05-23T12:01:44.686Z,12.85
2023-05-23T12:04:16.923Z,13.15
2023-05-23T12:06:49.717Z,13.46
2023-05-23T12:09:19.824Z,13.45
2023-05-23T12:11:49.410Z,13.17
2023-05-23T12:14:20.411Z,13.51
2023-05-23T12:16:50.132Z,14.00
2023-05-23T12:19:22.713Z,13.98
2023-05-23T12:21:52.566Z,14.24
2023-05-23T12:24:23.243Z,14.30
2023-05-23T12:26:53.764Z,14.14
2023-05-23T12:29:24.278Z,14.06
2023-05-23T12:31:54.369Z,13.81
2023-05-23T12:34:26.684Z,14.09
2023-05-23T12:37:10.465Z,14.53
2023-05-23T12:39:47.936Z,14.09
2023-05-23T12:42:17.536Z,14.21
2023-05-23T12:44:48.784Z,14.33
2023-05-23T12:47:18.445Z,14.35
2023-05-23T12:49:50.690Z,14.06
2023-05-23T12:52:20.249Z,14.13
2023-05-23T12:54:49.813Z,14.02
2023-05-23T12:57:19.390Z,13.97
2023-05-23T12:59:48.984Z,13.62
2023-05-23T13:02:18.559Z,13.36
2023-05-23T13:04:50.814Z,13.43
2023-05-23T13:07:20.416Z,13.45
2023-05-23T13:09:49.942Z,13.35
2023-05-23T13:12:19.568Z,13.01
2023-05-23T13:14:49.298Z,13.16
2023-05-23T13:17:18.853Z,13.08
2023-05-23T13:19:51.637Z,13.15
2023-05-23T13:22:21.208Z,13.41
2023-05-23T13:24:50.862Z,13.31
2023-05-23T13:27:21.644Z,13.21
2023-05-23T13:29:51.239Z,13.10
2023-05-23T13:32:20.888Z,12.80
2023-05-23T13:34:53.077Z,12.81
2023-05-23T13:37:22.653Z,12.93
2023-05-23T13:39:52.265Z,13.06
2023-05-23T13:42:21.848Z,12.97
2023-05-23T13:44:51.431Z,13.05
2023-05-23T13:47:21.008Z,12.94
2023-05-23T13:49:53.392Z,12.83
2023-05-23T13:52:22.981Z,12.73
2023-05-23T13:54:52.560Z,12.73
2023-05-23T13:57:22.452Z,12.79
2023-05-23T13:59:52.041Z,12.81
2023-05-23T14:02:21.830Z,12.80
2023-05-23T14:04:54.177Z,12.78
2023-05-23T14:07:23.786Z,12.83
2023-05-23T14:09:53.364Z,12.64
2023-05-23T14:12:22.946Z,12.59
2023-05-23T14:14:52.563Z,12.74
2023-05-23T14:17:23.503Z,12.75
2023-05-23T14:19:55.741Z,12.77
2023-05-23T14:22:25.498Z,12.83
2023-05-23T14:24:55.007Z,12.81
2023-05-23T14:27:24.558Z,12.69
2023-05-23T14:29:54.071Z,12.66
2023-05-23T14:32:25.096Z,12.39
2023-05-23T14:34:57.269Z,12.39
2023-05-23T14:37:26.883Z,12.30
2023-05-23T14:39:56.488Z,12.45
2023-05-23T14:42:26.667Z,12.35
2023-05-23T14:44:56.740Z,12.33
2023-05-23T14:47:26.669Z,12.56
2023-05-23T14:49:58.808Z,12.54
2023-05-23T14:52:28.410Z,12.59
2023-05-23T14:54:58.000Z,12.66
2023-05-23T14:57:27.641Z,12.63
2023-05-23T14:59:57.407Z,12.76
2023-05-23T15:02:27.030Z,12.78
2023-05-23T15:04:59.237Z,12.53
2023-05-23T15:07:28.856Z,12.55
2023-05-23T15:09:58.409Z,12.50
2023-05-23T15:12:27.969Z,12.32
2023-05-23T15:15:03.408Z,12.49
2023-05-23T15:17:33.148Z,12.58
2023-05-23T15:20:07.252Z,12.30
2023-05-23T15:22:39.743Z,12.28
2023-05-23T15:25:11.024Z,12.17
2023-05-23T15:27:40.684Z,12.10
2023-05-23T15:30:11.842Z,12.02
2023-05-23T15:32:41.649Z,11.92
2023-05-23T15:35:18.897Z,11.99
2023-05-23T15:37:49.268Z,12.11
2023-05-23T15:40:18.834Z,12.02
2023-05-23T15:42:48.337Z,12.05
2023-05-23T15:45:18.419Z,11.77
2023-05-23T15:47:47.981Z,11.82
2023-05-23T15:50:20.300Z,11.74
2023-05-23T15:52:49.870Z,11.74
2023-05-23T15:55:19.631Z,11.86
2023-05-23T15:57:49.205Z,11.78
2023-05-23T16:00:19.271Z,11.77
2023-05-23T16:02:48.845Z,11.90
2023-05-23T16:05:20.968Z,11.87
2023-05-23T16:07:50.489Z,11.84
2023-05-23T16:10:20.404Z,11.90
2023-05-23T16:12:49.947Z,11.81
2023-05-23T16:15:19.614Z,11.66
2023-05-23T16:17:49.177Z,11.83
2023-05-23T16:20:24.470Z,11.73
2023-05-23T16:22:54.173Z,11.71
2023-05-23T16:25:24.798Z,11.75
2023-05-23T16:27:58.651Z,11.65
2023-05-23T16:30:32.937Z,11.70
2023-05-23T16:33:02.597Z,11.83
2023-05-23T16:35:34.759Z,12.09
2023-05-23T16:38:04.341Z,11.98
2023-05-23T16:40:33.957Z,12.13
2023-05-23T16:43:04.042Z,12.27
2023-05-23T16:45:33.595Z,12.04
2023-05-23T16:48:03.696Z,12.04
2023-05-23T16:50:36.026Z,11.80
2023-05-23T16:53:05.576Z,11.53
2023-05-23T16:55:35.147Z,11.66
2023-05-23T16:58:04.712Z,11.94
2023-05-23T17:00:35.551Z,11.67
2023-05-23T17:03:06.113Z,11.40
2023-05-23T17:05:40.477Z,11.64
2023-05-23T17:08:12.300Z,11.50
2023-05-23T17:11:00.176Z,11.26
2023-05-23T17:13:32.596Z,11.19
2023-05-23T17:16:05.395Z,11.13
2023-05-23T17:18:41.964Z,11.10
2023-05-23T17:21:17.164Z,11.10
2023-05-23T17:23:53.151Z,11.01
2023-05-23T17:26:41.554Z,10.91
2023-05-23T17:29:15.123Z,10.92
2023-05-23T17:31:46.163Z,10.96
2023-05-23T17:34:23.208Z,10.97
2023-05-23T17:36:57.790Z,10.82
2023-05-23T17:39:35.370Z,10.88
2023-05-23T17:42:11.539Z,10.55
2023-05-23T17:44:41.291Z,10.63
2023-05-23T17:47:14.721Z,10.58
2023-05-23T17:49:44.589Z,10.54
2023-05-23T17:52:16.914Z,10.45
2023-05-23T17:54:46.432Z,10.37
2023-05-23T17:57:16.332Z,10.13
2023-05-23T17:59:46.098Z,10.09
2023-05-23T18:02:15.651Z,10.07
2023-05-23T18:04:45.540Z,9.93
2023-05-23T18:07:19.335Z,9.81
2023-05-23T18:09:48.995Z,9.86
2023-05-23T18:12:19.233Z,9.84
2023-05-23T18:14:49.604Z,9.81
2023-05-23T18:17:19.750Z,9.82
2023-05-23T18:19:49.655Z,9.84
2023-05-23T18:22:21.808Z,9.81
2023-05-23T18:24:51.373Z,9.74
2023-05-23T18:27:20.970Z,9.75
2023-05-23T18:29:50.557Z,9.69
2023-05-23T18:32:20.373Z,9.73
2023-05-23T18:34:49.895Z,9.58
2023-05-23T18:37:22.080Z,9.55
2023-05-23T18:39:51.766Z,9.60
2023-05-23T18:42:21.337Z,9.63
2023-05-23T18:44:50.889Z,9.52
2023-05-23T18:47:20.544Z,9.52
2023-05-23T18:49:50.133Z,9.48
2023-05-23T18:52:22.322Z,9.42
2023-05-23T18:54:54.004Z,9.45
2023-05-23T18:57:23.580Z,9.46
2023-05-23T18:59:53.498Z,9.42
2023-05-23T19:02:23.174Z,9.46
2023-05-23T19:04:52.838Z,9.51
2023-05-23T19:07:24.986Z,9.45
2023-05-23T19:09:54.497Z,9.46
2023-05-23T19:12:24.090Z,9.38
2023-05-23T19:14:53.716Z,9.31
2023-05-23T19:17:23.324Z,9.24
2023-05-23T19:19:52.952Z,9.34
2023-05-23T19:22:27.706Z,9.35
2023-05-23T19:24:57.706Z,9.14
2023-05-23T19:27:27.264Z,9.10
2023-05-23T19:29:56.845Z,9.09
2023-05-23T19:32:26.462Z,9.13
2023-05-23T19:34:56.658Z,8.97
2023-05-23T19:37:29.032Z,9.01
2023-05-23T19:39:59.097Z,9.03
2023-05-23T19:42:28.641Z,9.05
2023-05-23T19:44:58.342Z,9.08
2023-05-23T19:47:30.166Z,9.04
2023-05-23T19:50:00.571Z,9.00
2023-05-23T19:52:32.746Z,8.96
2023-05-23T19:55:03.656Z,9.01
2023-05-23T19:57:33.898Z,8.98
2023-05-23T20:00:04.105Z,8.95
2023-05-23T20:02:33.764Z,9.01
2023-05-23T20:05:03.339Z,9.00
2023-05-23T20:07:36.519Z,8.97
2023-05-23T20:10:06.818Z,9.04
2023-05-23T20:12:36.402Z,9.14
2023-05-23T20:15:07.766Z,9.03
2023-05-23T20:17:37.865Z,8.97
2023-05-23T20:20:08.997Z,8.97
2023-05-23T20:22:41.387Z,8.96
2023-05-23T20:25:11.675Z,8.93
2023-05-23T20:27:41.229Z,8.96
2023-05-23T20:30:12.609Z,8.90
2023-05-23T20:32:42.804Z,8.82
2023-05-23T20:35:12.496Z,8.75
2023-05-23T20:37:44.646Z,8.73
2023-05-23T20:40:15.166Z,8.72
2023-05-23T20:42:45.215Z,8.67
2023-05-23T20:45:15.629Z,8.65
2023-05-23T20:47:46.508Z,8.66
2023-05-23T20:50:17.592Z,8.64
2023-05-23T20:52:49.688Z,8.64
2023-05-23T20:55:20.405Z,8.58
2023-05-23T20:57:49.909Z,8.57
2023-05-23T21:00:21.700Z,8.51
2023-05-23T21:02:51.709Z,8.53
2023-05-23T21:05:21.521Z,8.54
2023-05-23T21:07:53.691Z,8.50
2023-05-23T21:10:23.283Z,8.53
2023-05-23T21:12:52.843Z,8.48
2023-05-23T21:15:22.768Z,8.55
2023-05-23T21:17:52.590Z,8.54
2023-05-23T21:20:22.637Z,8.48
2023-05-23T21:22:54.768Z,8.44
2023-05-23T21:25:24.375Z,8.41
2023-05-23T21:27:53.975Z,8.39
2023-05-23T21:30:24.529Z,8.41
2023-05-23T21:32:56.010Z,8.31
2023-05-23T21:35:25.679Z,8.29
2023-05-23T21:37:57.976Z,8.26
2023-05-23T21:40:28.078Z,8.34
2023-05-23T21:42:57.701Z,8.48
2023-05-23T21:45:27.336Z,8.40
2023-05-23T21:47:56.940Z,8.40
2023-05-23T21:50:26.574Z,8.41
2023-05-23T21:52:58.728Z,8.35
2023-05-23T21:55:28.349Z,8.29
2023-05-23T21:57:57.876Z,8.26
2023-05-23T22:00:27.522Z,8.29
2023-05-23T22:02:57.175Z,8.22
2023-05-23T22:05:26.877Z,8.28
2023-05-23T22:07:59.052Z,8.26
2023-05-23T22:10:28.714Z,8.27
2023-05-23T22:12:58.453Z,8.29
2023-05-23T22:15:28.052Z,8.31
2023-05-23T22:17:57.760Z,8.27
2023-05-23T22:20:28.090Z,8.27
2023-05-23T22:23:02.330Z,8.15
2023-05-23T22:25:32.722Z,8.21
2023-05-23T22:28:02.285Z,8.18
2023-05-23T22:30:31.907Z,8.12
2023-05-23T22:33:02.032Z,8.12
2023-05-23T22:35:32.252Z,8.09
2023-05-23T22:38:04.415Z,8.11
2023-05-23T22:40:33.972Z,8.11
2023-05-23T22:43:04.290Z,8.10
2023-05-23T22:45:40.472Z,8.08
2023-05-23T22:48:11.585Z,8.06
2023-05-23T22:50:43.311Z,8.16
2023-05-23T22:53:16.958Z,8.11
2023-05-23T22:55:46.494Z,8.07
2023-05-23T22:58:16.167Z,8.08
2023-05-23T23:00:46.367Z,8.07
2023-05-23T23:03:16.556Z,8.05
2023-05-23T23:05:46.583Z,8.07
2023-05-23T23:08:19.563Z,8.06
2023-05-23T23:10:49.332Z,8.05
2023-05-23T23:13:18.889Z,8.07
2023-05-23T23:15:50.424Z,8.00
2023-05-23T23:18:20.014Z,8.04
2023-05-23T23:20:49.693Z,8.04
2023-05-23T23:23:21.856Z,8.09
2023-05-23T23:25:52.679Z,8.07
2023-05-23T23:28:22.918Z,8.12
2023-05-23T23:30:52.509Z,8.07
2023-05-23T23:33:22.048Z,8.17
2023-05-23T23:35:51.963Z,8.17
2023-05-23T23:38:24.108Z,8.15
2023-05-23T23:40:53.725Z,8.11
2023-05-23T23:43:23.295Z,8.10
2023-05-23T23:45:52.870Z,8.03
2023-05-23T23:48:22.429Z,8.06
2023-05-23T23:50:52.032Z,8.11
2023-05-23T23:53:24.201Z,8.05
2023-05-23T23:55:53.813Z,8.05
2023-05-23T23:58:23.326Z,8.13
